Time;durP1;ratioP1;P1;durP2;ratioP2;P2;SDS_P1;SDS_P2;PMS_P1;PMS_P2;Temp;Humidity;BMP_temperature;BMP_pressure;BME280_temperature;BME280_humidity;BME280_pressure;Samples;Min_cycle;Max_cycle;Signal;HPM_P1;HPM_P2
2021/10/23 00:02:09;;;;;;;89.40;52.25;;;358.80;2329.60;;;;;;5095174;28;20028;-80
2021/10/23 00:04:35;;;;;;;93.90;51.55;;;358.90;2329.60;;;;;;5095160;28;20073;-80
2021/10/23 00:07:01;;;;;;;84.47;48.95;;;358.90;2329.60;;;;;;5093931;28;20028;-80
2021/10/23 00:09:27;;;;;;;82.97;48.38;;;358.80;2329.60;;;;;;5095174;28;20468;-80
2021/10/23 00:11:53;;;;;;;76.47;47.53;;;358.80;2329.60;;;;;;5094711;28;20032;-80
2021/10/23 00:14:18;;;;;;;77.28;47.90;;;358.80;2329.60;;;;;;5093410;28;20024;-80
2021/10/23 00:16:45;;;;;;;97.97;54.15;;;358.70;2329.60;;;;;;5093090;28;20400;-80
2021/10/23 00:19:10;;;;;;;80.75;49.20;;;358.70;2329.60;;;;;;5094914;28;20022;-80
2021/10/23 00:21:36;;;;;;;99.50;53.22;;;358.70;2329.60;;;;;;5093611;28;20028;-81
2021/10/23 00:24:02;;;;;;;87.78;50.17;;;358.70;2329.60;;;;;;5093474;28;20552;-80
2021/10/23 00:26:28;;;;;;;105.18;52.97;;;358.70;2329.60;;;;;;5093414;28;20074;-81
2021/10/23 00:28:54;;;;;;;79.22;46.25;;;358.60;2329.60;;;;;;5093370;28;20035;-80
2021/10/23 00:31:20;;;;;;;85.38;48.53;;;358.60;2329.60;;;;;;5093411;28;20024;-81
2021/10/23 00:33:46;;;;;;;69.40;45.47;;;358.60;2329.60;;;;;;5094967;28;20529;-80
2021/10/23 00:36:12;;;;;;;74.13;45.33;;;358.60;2329.60;;;;;;5094529;28;20491;-80
2021/10/23 00:38:38;;;;;;;69.90;45.25;;;358.70;2329.60;;;;;;5093232;28;20059;-80
2021/10/23 00:41:04;;;;;;;71.68;44.70;;;358.60;2329.60;;;;;;5093315;28;20101;-80
2021/10/23 00:43:30;;;;;;;75.13;46.55;;;358.70;2329.60;;;;;;5092778;28;20066;-80
2021/10/23 00:45:56;;;;;;;71.85;45.88;;;358.70;2329.60;;;;;;5093120;28;20020;-81
2021/10/23 00:48:22;;;;;;;66.63;45.53;;;358.60;2329.60;;;;;;5092987;28;20020;-80
2021/10/23 00:50:48;;;;;;;75.10;46.38;;;358.60;2329.60;;;;;;5093009;28;20091;-80
2021/10/23 00:53:14;;;;;;;73.30;46.58;;;358.60;2329.60;;;;;;5092414;28;20449;-80
2021/10/23 00:55:42;;;;;;;75.97;45.55;;;358.60;2329.60;;;;;;5094046;28;20020;-80
2021/10/23 00:58:08;;;;;;;91.93;49.47;;;358.60;2329.60;;;;;;5093034;28;20036;-80
2021/10/23 01:00:34;;;;;;;80.25;49.17;;;358.60;2329.60;;;;;;5094375;28;20012;-81
2021/10/23 01:03:00;;;;;;;78.68;47.95;;;358.60;2329.60;;;;;;5094010;28;20034;-80
2021/10/23 01:05:26;;;;;;;67.32;45.10;;;358.50;2329.60;;;;;;5094152;28;20088;-80
2021/10/23 01:07:52;;;;;;;80.60;48.05;;;358.50;2329.60;;;;;;5094041;28;20436;-81
2021/10/23 01:10:18;;;;;;;73.68;45.20;;;358.50;2329.60;;;;;;5092722;28;20059;-80
2021/10/23 01:12:44;;;;;;;59.42;40.33;;;358.50;2329.60;;;;;;5092791;28;20055;-80
2021/10/23 01:15:24;;;;;;;51.65;37.83;;;358.50;2329.60;;;;;;5092572;28;20131;-81
2021/10/23 01:17:52;;;;;;;45.88;34.22;;;358.40;2329.60;;;;;;5092628;28;20044;-82
2021/10/23 01:20:19;;;;;;;36.22;28.35;;;358.40;2329.60;;;;;;5093855;28;20494;-83
2021/10/23 01:22:45;;;;;;;32.97;25.02;;;333.70;2329.60;;;;;;5093177;28;20438;-87
2021/10/23 01:25:11;;;;;;;30.40;24.55;;;333.60;2329.60;;;;;;5092261;28;20028;-81
2021/10/23 01:27:39;;;;;;;18.45;13.48;;;333.60;2329.60;;;;;;5092398;28;20073;-83
2021/10/23 01:30:07;;;;;;;16.90;11.45;;;333.40;2329.60;;;;;;5093741;28;20020;-81
2021/10/23 01:32:33;;;;;;;11.27;7.47;;;333.40;2329.60;;;;;;5092612;28;20384;-82
2021/10/23 01:35:00;;;;;;;11.18;6.28;;;333.20;2329.60;;;;;;5093881;28;20024;-83
2021/10/23 01:37:38;;;;;;;13.18;5.15;;;333.10;2329.60;;;;;;5093730;28;20032;-82
2021/10/23 01:40:07;;;;;;;11.55;4.20;;;332.90;2329.60;;;;;;5092628;28;20141;-83
2021/10/23 01:42:34;;;;;;;7.47;2.50;;;332.80;2329.60;;;;;;5093733;28;20032;-82
2021/10/23 01:44:59;;;;;;;7.50;2.58;;;308.10;2304.00;;;;;;5092293;28;20031;-82
2021/10/23 01:47:25;;;;;;;5.43;2.00;;;307.90;2304.00;;;;;;5092518;28;20028;-83
2021/10/23 01:49:51;;;;;;;11.52;2.63;;;307.80;2304.00;;;;;;5092454;28;20024;-82
2021/10/23 01:52:17;;;;;;;7.20;2.90;;;307.80;2304.00;;;;;;5093492;28;20075;-83
2021/10/23 01:54:43;;;;;;;7.22;2.67;;;307.70;2304.00;;;;;;5092370;28;20028;-87
2021/10/23 01:57:09;;;;;;;7.32;2.42;;;307.50;2304.00;;;;;;5093485;28;20495;-83
2021/10/23 01:59:35;;;;;;;8.32;2.33;;;307.50;2304.00;;;;;;5092158;28;20028;-79
2021/10/23 02:02:02;;;;;;;7.78;2.40;;;307.40;2304.00;;;;;;5092350;28;20032;-82
2021/10/23 02:04:29;;;;;;;8.90;2.25;;;307.40;2304.00;;;;;;5092452;28;20053;-81
2021/10/23 02:06:55;;;;;;;8.93;2.13;;;307.30;2304.00;;;;;;5097539;28;20050;-84
2021/10/23 02:09:20;;;;;;;12.25;2.88;;;307.30;2304.00;;;;;;5097803;28;20376;-87
2021/10/23 02:11:47;;;;;;;8.85;2.60;;;307.20;2304.00;;;;;;5097358;28;20024;-83
2021/10/23 02:14:12;;;;;;;7.57;2.70;;;307.20;2304.00;;;;;;5097399;28;20077;-82
2021/10/23 02:16:38;;;;;;;6.60;2.42;;;307.20;2304.00;;;;;;5095954;28;20052;-82
2021/10/23 02:19:04;;;;;;;6.72;2.50;;;307.30;2304.00;;;;;;5095690;28;20473;-82
2021/10/23 02:21:30;;;;;;;7.13;2.28;;;307.30;2304.00;;;;;;5095946;28;20094;-82
2021/10/23 02:23:56;;;;;;;6.65;2.83;;;307.30;2304.00;;;;;;5097281;28;20024;-82
2021/10/23 02:26:22;;;;;;;9.02;3.13;;;307.30;2304.00;;;;;;5095524;28;20028;-82
2021/10/23 02:28:48;;;;;;;9.77;3.15;;;307.30;2304.00;;;;;;5097156;28;20099;-82
2021/10/23 02:31:14;;;;;;;7.30;3.13;;;307.30;2304.00;;;;;;5095779;28;20138;-82
2021/10/23 02:33:40;;;;;;;11.48;3.65;;;307.30;2304.00;;;;;;5097137;28;20024;-82
2021/10/23 02:36:06;;;;;;;8.45;3.03;;;307.30;2304.00;;;;;;5095574;28;20028;-81
2021/10/23 02:38:32;;;;;;;11.30;2.92;;;307.30;2304.00;;;;;;5096931;28;20388;-82
2021/10/23 02:40:58;;;;;;;9.23;3.00;;;307.30;2304.00;;;;;;5095349;28;20024;-82
2021/10/23 02:43:24;;;;;;;7.60;3.00;;;307.30;2304.00;;;;;;5095199;28;20077;-82
2021/10/23 02:45:51;;;;;;;7.65;3.08;;;307.30;2304.00;;;;;;5096702;28;20562;-81
2021/10/23 02:48:17;;;;;;;8.25;2.97;;;307.30;2304.00;;;;;;5095483;28;20464;-81
2021/10/23 02:50:43;;;;;;;7.75;3.50;;;307.30;2304.00;;;;;;5096572;28;20511;-82
2021/10/23 02:53:09;;;;;;;9.98;3.05;;;307.30;2304.00;;;;;;5096619;28;20043;-82
2021/10/23 02:55:36;;;;;;;5.25;2.53;;;307.20;2304.00;;;;;;5095372;28;20056;-82
2021/10/23 02:58:03;;;;;;;10.80;3.50;;;307.30;2304.00;;;;;;5096526;28;20043;-82
2021/10/23 03:00:29;;;;;;;8.82;2.97;;;307.40;2304.00;;;;;;5095301;28;20464;-82
2021/10/23 03:02:55;;;;;;;9.95;2.83;;;307.30;2304.00;;;;;;5095225;28;20525;-82
2021/10/23 03:05:21;;;;;;;7.85;2.83;;;307.20;2304.00;;;;;;5095237;28;20027;-82
2021/10/23 03:07:47;;;;;;;7.88;2.83;;;307.30;2304.00;;;;;;5095144;28;20158;-82
2021/10/23 03:10:14;;;;;;;10.70;2.42;;;307.20;2304.00;;;;;;5095090;28;20495;-82
2021/10/23 03:12:40;;;;;;;8.20;2.55;;;282.50;2278.40;;;;;;5095076;28;20032;-83
2021/10/23 03:15:07;;;;;;;8.43;2.13;;;282.50;2278.40;;;;;;5094641;28;20047;-82
2021/10/23 03:17:33;;;;;;;7.25;1.90;;;282.50;2201.60;;;;;;5093967;28;20113;-82
2021/10/23 03:19:59;;;;;;;5.72;1.77;;;282.50;2201.60;;;;;;5096236;28;20457;-82
2021/10/23 03:22:26;;;;;;;7.88;1.65;;;282.50;2176.00;;;;;;5096090;28;20365;-82
2021/10/23 03:24:52;;;;;;;7.45;1.80;;;282.40;2201.60;;;;;;5096054;28;20025;-82
2021/10/23 03:27:22;;;;;;;5.22;1.75;;;282.40;2201.60;;;;;;5094832;28;20028;-83
2021/10/23 03:29:49;;;;;;;12.23;2.03;;;282.40;2201.60;;;;;;5094687;28;20031;-82
2021/10/23 03:32:15;;;;;;;5.75;1.83;;;282.30;2227.20;;;;;;5094812;28;20031;-82
2021/10/23 03:34:41;;;;;;;5.80;1.98;;;282.40;2227.20;;;;;;5095805;28;20020;-82
2021/10/23 03:37:07;;;;;;;5.20;1.88;;;282.40;2227.20;;;;;;5094528;28;20130;-82
2021/10/23 03:39:32;;;;;;;10.25;1.77;;;282.40;2252.80;;;;;;5094327;28;20023;-82
2021/10/23 03:41:58;;;;;;;5.10;1.73;;;282.50;2227.20;;;;;;5094516;28;20034;-87
2021/10/23 03:44:24;;;;;;;5.50;1.75;;;282.40;2252.80;;;;;;5095981;28;20103;-82
2021/10/23 03:46:50;;;;;;;7.97;2.47;;;282.40;2278.40;;;;;;5094216;28;20381;-82
2021/10/23 03:49:16;;;;;;;8.05;2.58;;;282.30;2278.40;;;;;;5094395;28;20094;-82
2021/10/23 03:51:43;;;;;;;14.75;4.10;;;282.20;2278.40;;;;;;5095229;28;20028;-82
2021/10/23 03:54:09;;;;;;;8.23;3.22;;;282.20;2278.40;;;;;;5094254;28;20055;-83
2021/10/23 03:56:35;;;;;;;7.20;2.63;;;282.20;2278.40;;;;;;5095402;28;20516;-82
2021/10/23 03:59:01;;;;;;;8.32;2.47;;;282.10;2278.40;;;;;;5094127;28;20119;-82
2021/10/23 04:01:27;;;;;;;8.88;2.67;;;282.20;2278.40;;;;;;5094122;28;20016;-83
2021/10/23 04:03:54;;;;;;;11.65;3.95;;;282.10;2278.40;;;;;;5094140;28;20031;-82
2021/10/23 04:06:20;;;;;;;9.40;3.53;;;282.10;2278.40;;;;;;5095290;28;20086;-82
2021/10/23 04:08:45;;;;;;;7.88;2.92;;;282.10;2278.40;;;;;;5094062;28;20353;-93
2021/10/23 04:11:11;;;;;;;7.85;2.20;;;282.00;2278.40;;;;;;5094120;28;20136;-92
2021/10/23 04:13:37;;;;;;;5.20;1.90;;;282.00;2278.40;;;;;;5094251;28;20028;-92
2021/10/23 04:16:04;;;;;;;12.05;4.35;;;282.10;2278.40;;;;;;5093550;28;20048;-82
2021/10/23 04:18:29;;;;;;;12.45;3.65;;;282.10;2278.40;;;;;;5093652;28;20070;-82
2021/10/23 04:20:57;;;;;;;7.97;3.28;;;282.10;2278.40;;;;;;5093728;28;20066;-82
2021/10/23 04:23:23;;;;;;;10.65;4.68;;;282.10;2278.40;;;;;;5093532;28;20483;-82
2021/10/23 04:25:49;;;;;;;13.93;5.95;;;282.00;2278.40;;;;;;5093607;28;20040;-82
2021/10/23 04:28:15;;;;;;;13.20;4.30;;;282.00;2278.40;;;;;;5093386;28;20031;-82
2021/10/23 04:30:41;;;;;;;9.68;4.22;;;282.00;2278.40;;;;;;5094776;28;20039;-82
2021/10/23 04:33:07;;;;;;;13.73;4.75;;;282.00;2278.40;;;;;;5093490;28;20027;-82
2021/10/23 04:35:33;;;;;;;45.67;25.65;;;282.00;2278.40;;;;;;5093316;28;20396;-82
2021/10/23 04:37:59;;;;;;;39.50;20.40;;;282.10;2278.40;;;;;;5093349;28;20035;-82
2021/10/23 04:40:25;;;;;;;25.92;13.80;;;282.10;2278.40;;;;;;5093387;28;20480;-82
2021/10/23 04:42:51;;;;;;;16.48;6.07;;;282.10;2278.40;;;;;;5093199;28;20028;-82
2021/10/23 04:45:17;;;;;;;7.47;2.35;;;282.10;2278.40;;;;;;5093507;28;20031;-82
2021/10/23 04:47:43;;;;;;;7.30;3.13;;;282.10;2278.40;;;;;;5093237;28;20073;-82
2021/10/23 04:50:09;;;;;;;6.70;3.20;;;282.10;2278.40;;;;;;5093122;28;20070;-82
2021/10/23 04:52:35;;;;;;;8.05;2.70;;;282.20;2278.40;;;;;;5076163;28;20032;-82
2021/10/23 04:55:01;;;;;;;5.82;2.20;;;282.20;2278.40;;;;;;5094479;28;20031;-82
2021/10/23 04:57:27;;;;;;;9.13;2.47;;;282.20;2278.40;;;;;;5092958;28;20036;-82
2021/10/23 04:59:52;;;;;;;5.45;2.65;;;282.10;2278.40;;;;;;5092911;28;20384;-82
2021/10/23 05:02:18;;;;;;;8.75;3.08;;;282.10;2278.40;;;;;;5092922;28;20031;-82
2021/10/23 05:04:44;;;;;;;6.55;3.17;;;282.00;2278.40;;;;;;5092930;28;20028;-82
2021/10/23 05:07:10;;;;;;;10.73;4.65;;;282.00;2278.40;;;;;;5092885;28;20117;-82
2021/10/23 05:09:36;;;;;;;11.77;4.95;;;282.00;2278.40;;;;;;5094030;28;20121;-82
2021/10/23 05:12:02;;;;;;;16.10;6.30;;;282.00;2278.40;;;;;;5094268;28;20468;-82
2021/10/23 05:14:28;;;;;;;14.05;5.32;;;282.00;2278.40;;;;;;5092829;28;20055;-82
2021/10/23 05:16:54;;;;;;;15.15;7.00;;;282.00;2278.40;;;;;;5092471;28;20556;-82
2021/10/23 05:19:20;;;;;;;22.45;11.20;;;282.10;2278.40;;;;;;5092747;28;20027;-82
2021/10/23 05:21:46;;;;;;;18.73;8.00;;;282.10;2278.40;;;;;;5092771;28;20061;-83
2021/10/23 05:24:11;;;;;;;16.45;6.13;;;282.10;2278.40;;;;;;5094005;28;20375;-83
2021/10/23 05:26:38;;;;;;;12.07;4.93;;;282.10;2278.40;;;;;;5093783;28;20024;-83
2021/10/23 05:29:03;;;;;;;8.43;4.25;;;282.10;2278.40;;;;;;5094226;28;20464;-82
2021/10/23 05:31:29;;;;;;;10.85;4.47;;;282.10;2278.40;;;;;;5092546;28;20043;-82
2021/10/23 05:33:55;;;;;;;10.82;4.40;;;282.10;2278.40;;;;;;5093977;28;20024;-82
2021/10/23 05:36:21;;;;;;;8.85;3.40;;;282.10;2278.40;;;;;;5092547;28;20061;-82
2021/10/23 05:38:47;;;;;;;9.50;3.35;;;282.10;2278.40;;;;;;5092525;28;20020;-82
2021/10/23 05:41:13;;;;;;;12.05;2.75;;;282.00;2252.80;;;;;;5093313;28;20031;-82
2021/10/23 05:43:39;;;;;;;7.05;2.30;;;282.00;2252.80;;;;;;5092528;28;20503;-82
2021/10/23 05:46:05;;;;;;;7.57;2.25;;;282.00;2278.40;;;;;;5092626;28;20035;-82
2021/10/23 05:48:30;;;;;;;7.32;1.80;;;282.00;2278.40;;;;;;5092500;28;20119;-82
2021/10/23 05:50:56;;;;;;;5.28;2.42;;;282.00;2278.40;;;;;;5092465;28;20471;-82
2021/10/23 05:53:22;;;;;;;9.20;2.10;;;282.00;2278.40;;;;;;5092195;28;20028;-83
2021/10/23 05:55:48;;;;;;;5.82;2.83;;;282.00;2278.40;;;;;;5092299;28;20553;-82
2021/10/23 05:58:14;;;;;;;7.45;2.65;;;282.00;2278.40;;;;;;5092328;28;20036;-91
2021/10/23 06:00:49;;;;;;;9.15;2.80;;;282.00;2278.40;;;;;;5092457;28;20060;-82
2021/10/23 06:03:18;;;;;;;5.53;1.85;;;282.00;2278.40;;;;;;5092499;28;20066;-82
2021/10/23 06:05:45;;;;;;;6.50;2.33;;;282.00;2278.40;;;;;;5092448;28;20078;-82
2021/10/23 06:08:12;;;;;;;11.93;6.07;;;282.00;2278.40;;;;;;5093523;28;20035;-82
2021/10/23 06:10:38;;;;;;;20.38;9.40;;;282.20;2278.40;;;;;;5093389;28;20017;-92
2021/10/23 06:13:03;;;;;;;70.65;29.00;;;282.00;2278.40;;;;;;5093377;28;20047;-83
2021/10/23 06:15:29;;;;;;;117.78;50.88;;;282.00;2278.40;;;;;;5093342;28;20087;-90
2021/10/23 06:17:55;;;;;;;73.00;34.70;;;282.00;2278.40;;;;;;5092271;28;20134;-83
2021/10/23 06:20:21;;;;;;;43.03;20.65;;;282.10;2278.40;;;;;;5092250;28;20020;-83
2021/10/23 06:22:49;;;;;;;15.30;6.47;;;282.10;2252.80;;;;;;5092301;28;20564;-82
2021/10/23 06:25:17;;;;;;;10.43;4.95;;;282.10;2227.20;;;;;;5093407;28;20025;-82
2021/10/23 06:27:44;;;;;;;11.77;4.60;;;282.10;2252.80;;;;;;5092127;28;20024;-83
2021/10/23 06:30:10;;;;;;;13.02;7.72;;;282.10;2227.20;;;;;;5092109;28;20042;-82
2021/10/23 06:32:48;;;;;;;68.32;28.92;;;282.20;2227.20;;;;;;5093590;28;20016;-83
2021/10/23 06:35:14;;;;;;;42.00;19.85;;;282.10;2252.80;;;;;;5089729;28;20054;-83
2021/10/23 06:37:40;;;;;;;17.55;8.10;;;282.00;2278.40;;;;;;5092069;28;20040;-83
2021/10/23 06:40:07;;;;;;;16.95;7.07;;;282.00;2278.40;;;;;;5092007;28;20049;-83
2021/10/23 06:42:33;;;;;;;19.55;8.15;;;282.00;2278.40;;;;;;5093285;28;20354;-83
2021/10/23 06:44:59;;;;;;;22.73;9.32;;;282.00;2278.40;;;;;;5092109;28;20028;-83
2021/10/23 06:47:25;;;;;;;17.98;8.57;;;281.90;2278.40;;;;;;5093533;28;20024;-83
2021/10/23 06:49:51;;;;;;;19.90;7.65;;;281.80;2278.40;;;;;;5093219;28;20025;-84
2021/10/23 06:52:17;;;;;;;18.52;9.10;;;281.80;2278.40;;;;;;5094902;28;20107;-83
2021/10/23 06:54:43;;;;;;;16.35;8.50;;;282.00;2278.40;;;;;;5095766;28;20058;-83
2021/10/23 06:57:09;;;;;;;18.25;9.73;;;282.10;2227.20;;;;;;5095867;28;20047;-83
2021/10/23 06:59:35;;;;;;;19.52;7.95;;;282.20;2252.80;;;;;;5097257;28;20031;-83
2021/10/23 07:02:01;;;;;;;12.30;5.97;;;282.30;2201.60;;;;;;5095486;28;20039;-84
2021/10/23 07:04:27;;;;;;;15.57;5.45;;;282.30;2227.20;;;;;;5095648;28;20361;-89
2021/10/23 07:06:53;;;;;;;12.25;4.65;;;282.30;2227.20;;;;;;5095642;28;20020;-83
2021/10/23 07:09:19;;;;;;;13.93;6.50;;;282.30;2252.80;;;;;;5096929;28;20500;-83
2021/10/23 07:11:45;;;;;;;12.68;5.65;;;282.30;2227.20;;;;;;5095392;28;20024;-83
2021/10/23 07:14:11;;;;;;;18.88;5.57;;;282.30;2252.80;;;;;;5096580;28;20020;-84
2021/10/23 07:16:37;;;;;;;12.05;4.30;;;282.30;2227.20;;;;;;5094658;28;20048;-85
2021/10/23 07:19:03;;;;;;;7.63;3.08;;;282.40;2227.20;;;;;;5096434;28;20103;-83
2021/10/23 07:21:29;;;;;;;10.18;3.40;;;282.40;2201.60;;;;;;5095050;28;20081;-83
2021/10/23 07:23:56;;;;;;;9.60;4.32;;;282.30;2201.60;;;;;;5095156;28;20470;-83
2021/10/23 07:26:22;;;;;;;9.48;3.63;;;282.30;2176.00;;;;;;5095106;28;20389;-84
2021/10/23 07:28:48;;;;;;;11.52;4.30;;;282.30;2176.00;;;;;;5096229;28;20020;-83
2021/10/23 07:31:14;;;;;;;11.80;5.72;;;282.40;2150.40;;;;;;5095007;28;20024;-84
2021/10/23 07:33:40;;;;;;;10.00;3.72;;;282.50;2201.60;;;;;;5094847;28;20035;-84
2021/10/23 07:36:06;;;;;;;10.70;3.60;;;282.50;2176.00;;;;;;5094699;28;20055;-83
2021/10/23 07:38:32;;;;;;;10.50;3.17;;;282.50;2150.40;;;;;;5094830;28;20032;-84
2021/10/23 07:40:58;;;;;;;9.43;3.80;;;282.50;2150.40;;;;;;5094821;28;20031;-84
2021/10/23 07:43:24;;;;;;;14.80;5.88;;;307.20;2176.00;;;;;;5094682;28;20028;-83
2021/10/23 07:45:51;;;;;;;10.73;3.05;;;307.20;2201.60;;;;;;5094722;28;20020;-86
2021/10/23 07:48:17;;;;;;;9.10;2.83;;;307.20;2150.40;;;;;;5094594;28;20043;-84
2021/10/23 07:50:45;;;;;;;9.63;2.85;;;282.50;2124.80;;;;;;5094657;28;20020;-85
2021/10/23 07:53:11;;;;;;;7.50;3.30;;;282.50;2150.40;;;;;;5094694;28;20031;-84
2021/10/23 07:55:37;;;;;;;20.13;6.65;;;307.20;2124.80;;;;;;5095515;28;20388;-84
2021/10/23 07:58:04;;;;;;;29.90;10.25;;;307.20;2150.40;;;;;;5094310;28;20028;-84
2021/10/23 08:00:30;;;;;;;20.23;7.90;;;307.30;2099.20;;;;;;5094425;28;20028;-85
2021/10/23 08:02:58;;;;;;;18.17;9.43;;;307.30;2124.80;;;;;;5093980;28;20031;-84
2021/10/23 08:05:29;;;;;;;33.25;14.70;;;307.30;2124.80;;;;;;5095443;28;20361;-84
2021/10/23 08:07:55;;;;;;;28.00;13.52;;;307.30;2124.80;;;;;;5096067;28;20110;-85
2021/10/23 08:10:23;;;;;;;21.13;12.18;;;307.40;2124.80;;;;;;5094226;28;20518;-85
2021/10/23 08:12:49;;;;;;;32.33;12.15;;;307.40;2176.00;;;;;;5095397;28;20107;-84
2021/10/23 08:15:15;;;;;;;37.25;17.27;;;307.40;2099.20;;;;;;5095005;28;20040;-84
2021/10/23 08:17:42;;;;;;;16.98;7.60;;;307.40;2099.20;;;;;;5094814;28;20135;-84
2021/10/23 08:20:09;;;;;;;13.80;7.93;;;307.40;2073.60;;;;;;5095330;28;20032;-89
2021/10/23 08:22:36;;;;;;;22.58;12.05;;;307.50;2099.20;;;;;;5094097;28;20073;-83
2021/10/23 08:25:05;;;;;;;12.27;6.10;;;307.30;2099.20;;;;;;5094078;28;20077;-84
2021/10/23 08:27:36;;;;;;;18.17;8.50;;;307.40;2073.60;;;;;;5093877;28;20107;-84
2021/10/23 08:30:05;;;;;;;20.10;9.10;;;307.40;2073.60;;;;;;5095284;28;20043;-84
2021/10/23 08:32:31;;;;;;;14.95;6.57;;;307.50;2124.80;;;;;;5094519;28;20055;-84
2021/10/23 08:34:58;;;;;;;23.67;8.98;;;307.50;2099.20;;;;;;5093986;28;20488;-83
2021/10/23 08:37:24;;;;;;;21.00;8.57;;;307.60;2048.00;;;;;;5093729;28;20032;-84
2021/10/23 08:39:51;;;;;;;12.55;7.13;;;307.60;2099.20;;;;;;5093684;28;20076;-83
2021/10/23 08:42:18;;;;;;;13.02;7.55;;;307.60;2099.20;;;;;;5094624;28;20062;-84
2021/10/23 08:44:44;;;;;;;9.05;4.15;;;307.70;2099.20;;;;;;5093590;28;20027;-84
2021/10/23 08:47:11;;;;;;;12.30;5.32;;;307.60;2073.60;;;;;;5093478;28;20031;-83
2021/10/23 08:49:38;;;;;;;9.15;3.45;;;307.70;2099.20;;;;;;5093396;28;20468;-83
2021/10/23 08:52:05;;;;;;;15.10;4.97;;;307.70;2048.00;;;;;;5093659;28;20016;-82
2021/10/23 08:54:34;;;;;;;18.38;5.93;;;307.70;2048.00;;;;;;5094316;28;20052;-83
2021/10/23 08:57:01;;;;;;;11.48;4.88;;;307.70;2073.60;;;;;;5093369;28;20071;-83
2021/10/23 08:59:28;;;;;;;12.30;5.43;;;307.60;2124.80;;;;;;5093446;28;20016;-84
2021/10/23 09:01:58;;;;;;;11.52;4.60;;;307.70;2124.80;;;;;;5094383;28;20403;-85
2021/10/23 09:04:31;;;;;;;13.70;5.63;;;307.50;2124.80;;;;;;5093209;28;20016;-82
2021/10/23 09:07:14;;;;;;;31.42;13.50;;;307.50;2124.80;;;;;;5093226;28;20016;-83
2021/10/23 09:09:50;;;;;;;14.55;6.53;;;307.50;2099.20;;;;;;5093301;28;20392;-82
2021/10/23 09:12:24;;;;;;;13.52;6.80;;;307.50;2124.80;;;;;;5093342;28;20395;-84
2021/10/23 09:14:57;;;;;;;53.80;29.95;;;307.50;2124.80;;;;;;5092052;28;20122;-83
2021/10/23 09:17:23;;;;;;;63.07;34.57;;;307.50;2099.20;;;;;;5094300;28;20028;-84
2021/10/23 09:19:51;;;;;;;25.20;14.55;;;307.60;2124.80;;;;;;5093064;28;20302;-84
2021/10/23 09:22:31;;;;;;;19.63;9.32;;;307.70;2099.20;;;;;;5092921;28;20031;-83
2021/10/23 09:25:16;;;;;;;14.38;5.85;;;307.60;2124.80;;;;;;5093165;28;20020;-84
2021/10/23 09:28:04;;;;;;;14.23;5.28;;;307.60;2099.20;;;;;;5092967;28;20020;-84
2021/10/23 09:30:31;;;;;;;16.92;5.28;;;307.60;2099.20;;;;;;5092997;28;20039;-84
2021/10/23 09:33:06;;;;;;;13.25;7.70;;;307.60;2099.20;;;;;;5093992;28;20023;-84
2021/10/23 09:35:55;;;;;;;11.85;6.35;;;307.60;2124.80;;;;;;5092966;28;20031;-84
2021/10/23 09:38:23;;;;;;;12.10;5.78;;;307.70;2124.80;;;;;;5092756;28;20035;-82
2021/10/23 09:40:52;;;;;;;15.63;5.85;;;307.70;2099.20;;;;;;5092697;28;20016;-84
2021/10/23 09:43:29;;;;;;;53.65;22.50;;;307.70;2124.80;;;;;;5092705;28;20028;-80
2021/10/23 09:45:58;;;;;;;38.63;20.75;;;307.90;2048.00;;;;;;5092692;28;20027;-84
2021/10/23 09:48:29;;;;;;;26.50;12.88;;;307.90;1996.80;;;;;;5092620;28;20103;-83
2021/10/23 09:51:30;;;;;;;26.00;10.02;;;307.90;2048.00;;;;;;5093866;28;20034;-82
2021/10/23 09:53:58;;;;;;;17.20;7.05;;;307.90;2124.80;;;;;;5092559;28;20024;-82
2021/10/23 09:56:37;;;;;;;26.75;8.55;;;307.90;2048.00;;;;;;5092284;28;20073;-85
2021/10/23 09:59:11;;;;;;;34.50;12.85;;;307.80;2022.40;;;;;;5093422;28;20028;-82
2021/10/23 10:01:42;;;;;;;18.38;6.65;;;308.00;2048.00;;;;;;5092436;28;20166;-84
2021/10/23 10:04:16;;;;;;;39.85;15.48;;;308.00;2022.40;;;;;;5092529;28;20028;-78
2021/10/23 10:06:43;;;;;;;41.55;26.73;;;308.10;2022.40;;;;;;5092340;28;20028;-82
2021/10/23 10:09:19;;;;;;;35.95;29.83;;;308.00;1971.20;;;;;;5092404;28;20090;-85
2021/10/23 10:11:48;;;;;;;22.52;13.27;;;308.00;1971.20;;;;;;5093605;28;20048;-82
2021/10/23 10:14:16;;;;;;;34.88;14.45;;;308.10;1971.20;;;;;;5093416;28;20383;-81
2021/10/23 10:16:46;;;;;;;22.75;11.40;;;308.10;1996.80;;;;;;5091849;28;20040;-80
2021/10/23 10:19:14;;;;;;;337.05;258.95;;;308.10;1971.20;;;;;;5092294;28;20387;-83
2021/10/23 10:21:40;;;;;;;27.23;16.80;;;332.80;2022.40;;;;;;5093319;28;20027;-83
2021/10/23 10:24:25;;;;;;;21.15;13.20;;;332.80;2022.40;;;;;;5092283;28;20074;-85
2021/10/23 10:27:19;;;;;;;26.08;11.25;;;332.90;2022.40;;;;;;5094425;28;20047;-83
2021/10/23 10:29:52;;;;;;;26.88;13.50;;;332.80;2022.40;;;;;;5096250;28;20032;-81
2021/10/23 10:32:37;;;;;;;26.83;12.55;;;332.80;2048.00;;;;;;5097165;28;20023;-81
2021/10/23 10:35:24;;;;;;;29.88;17.70;;;332.80;2048.00;;;;;;5097267;28;20376;-81
2021/10/23 10:38:42;;;;;;;21.05;10.48;;;332.80;2048.00;;;;;;5094244;28;20166;-85
2021/10/23 10:43:19;;;;;;;27.25;17.58;;;308.10;2022.40;;;;;;5097058;28;20056;-81
2021/10/23 10:45:48;;;;;;;24.02;12.40;;;308.10;2022.40;;;;;;5095722;28;20142;-84
2021/10/23 10:48:14;;;;;;;37.83;26.73;;;332.80;2073.60;;;;;;5097027;28;20525;-84
2021/10/23 10:50:46;;;;;;;26.15;13.10;;;333.00;2073.60;;;;;;5096884;28;20032;-83
2021/10/23 10:53:12;;;;;;;23.10;12.55;;;333.00;2099.20;;;;;;5095668;28;20071;-84
2021/10/23 10:55:40;;;;;;;25.45;11.75;;;333.10;2022.40;;;;;;5095587;28;20469;-82
2021/10/23 10:58:11;;;;;;;32.05;16.25;;;333.20;2022.40;;;;;;5096843;28;20028;-83
2021/10/23 11:00:46;;;;;;;30.00;15.45;;;333.10;2048.00;;;;;;5095463;28;20039;-80
2021/10/23 11:03:49;;;;;;;27.25;15.48;;;333.10;2022.40;;;;;;5095513;28;20385;-84
2021/10/23 11:06:36;;;;;;;21.60;12.55;;;333.20;2048.00;;;;;;5095315;28;20446;-81
2021/10/23 11:09:30;;;;;;;23.10;11.43;;;333.10;2022.40;;;;;;5095127;28;20106;-82
2021/10/23 11:11:59;;;;;;;15.23;7.93;;;333.00;2048.00;;;;;;5095374;28;20146;-84
2021/10/23 11:14:27;;;;;;;28.90;14.95;;;333.20;1996.80;;;;;;5096405;28;20487;-82
2021/10/23 11:16:56;;;;;;;20.33;12.68;;;333.20;2022.40;;;;;;5094951;28;20047;-83
2021/10/23 11:19:25;;;;;;;21.02;9.13;;;333.30;1945.60;;;;;;5095037;28;20035;-83
2021/10/23 11:21:58;;;;;;;12.48;5.88;;;333.30;1971.20;;;;;;5094964;28;20020;-81
2021/10/23 11:24:41;;;;;;;10.63;5.05;;;333.20;1971.20;;;;;;5094938;28;20032;-82
2021/10/23 11:27:07;;;;;;;18.92;5.90;;;333.30;1945.60;;;;;;5096173;28;20052;-83
2021/10/23 11:29:33;;;;;;;19.30;6.78;;;333.40;1971.20;;;;;;5095914;28;20046;-83
2021/10/23 11:32:00;;;;;;;12.80;7.20;;;333.50;1945.60;;;;;;5094618;28;20507;-80
2021/10/23 11:34:28;;;;;;;12.85;6.68;;;333.50;1920.00;;;;;;5094293;28;20027;-78
2021/10/23 11:37:13;;;;;;;12.35;4.80;;;333.40;1945.60;;;;;;5094285;28;20043;-82
2021/10/23 11:39:40;;;;;;;19.58;8.30;;;333.30;1894.40;;;;;;5095677;28;20487;-79
2021/10/23 11:42:27;;;;;;;20.13;8.57;;;333.40;1945.60;;;;;;5095830;28;20024;-81
2021/10/23 11:45:03;;;;;;;13.85;7.15;;;333.40;1920.00;;;;;;5095997;28;20024;-80
2021/10/23 11:47:30;;;;;;;14.82;5.70;;;333.40;1945.60;;;;;;5095747;28;20464;-79
2021/10/23 11:49:59;;;;;;;16.45;8.77;;;333.40;1945.60;;;;;;5095713;28;20035;-77
2021/10/23 11:52:28;;;;;;;14.32;6.50;;;333.70;1920.00;;;;;;5095510;28;20464;-78
2021/10/23 11:54:56;;;;;;;12.85;6.43;;;333.70;1945.60;;;;;;5094124;28;20431;-78
2021/10/23 11:57:43;;;;;;;11.02;5.97;;;358.40;1920.00;;;;;;5094171;28;20127;-83
2021/10/23 12:00:17;;;;;;;15.27;6.57;;;358.40;1920.00;;;;;;5094206;28;20030;-82
2021/10/23 12:02:48;;;;;;;16.50;5.93;;;333.70;1920.00;;;;;;5094140;28;20035;-82
2021/10/23 12:05:28;;;;;;;19.17;8.40;;;333.70;1945.60;;;;;;5094157;28;20054;-82
2021/10/23 12:08:19;;;;;;;18.02;7.85;;;358.40;1920.00;;;;;;5094068;28;20020;-78
2021/10/23 12:11:04;;;;;;;14.88;8.82;;;358.40;1920.00;;;;;;5094123;28;20028;-83
2021/10/23 12:14:00;;;;;;;26.50;8.57;;;358.40;1945.60;;;;;;5094007;28;20028;-82
2021/10/23 12:16:43;;;;;;;12.60;8.38;;;358.40;1971.20;;;;;;5093715;28;20071;-84
2021/10/23 12:19:16;;;;;;;19.17;8.25;;;358.40;1894.40;;;;;;5094031;28;20024;-83